WZZ5464 EGGW-EDLW
Flight info
| Callsign | WZZ5464 |
|---|---|
| Flight time | N/A |
| Altitude | 33000 |
| Route | MATCH Q295 BRAIN M197 REDFA L620 TACHA DCT PAM L620 SONEB Z841 DOMEG DOMEG2A |
| Aircraft | A21N/M-SDE3FGHIRWY/LB1 |
Departure
| Time | 2026-05-04 12:08 |
|---|---|
| Airport | London Luton Airport (EGGW) |
Arrival
| Time | N/A |
|---|---|
| Airport | Dortmund Airport (EDLW) |
| Time | Latitude | Longitude | Altitude | Speed | Heading |
|---|---|---|---|---|---|
| 2026-05-04 11:41 | 51.87982 | -0.37203 | 534 ft | 0 kts | 162° |
| 2026-05-04 11:59 | 51.87990 | -0.37207 | 534 ft | 2 kts | 162° |
| 2026-05-04 11:59 | 51.88004 | -0.37215 | 534 ft | 2 kts | 161° |
| 2026-05-04 11:59 | 51.88015 | -0.37221 | 534 ft | 0 kts | 162° |
| 2026-05-04 11:59 | 51.88025 | -0.37231 | 534 ft | 2 kts | 117° |
| 2026-05-04 12:00 | 51.88028 | -0.37250 | 534 ft | 0 kts | 75° |
| 2026-05-04 12:00 | 51.88025 | -0.37261 | 534 ft | 1 kts | 71° |
| 2026-05-04 12:00 | 51.88025 | -0.37262 | 534 ft | 0 kts | 72° |
| 2026-05-04 12:02 | 51.88032 | -0.37228 | 534 ft | 7 kts | 71° |
| 2026-05-04 12:03 | 51.88019 | -0.37138 | 534 ft | 10 kts | 152° |
| 2026-05-04 12:03 | 51.87953 | -0.37094 | 534 ft | 10 kts | 163° |
| 2026-05-04 12:03 | 51.87879 | -0.37056 | 534 ft | 11 kts | 162° |
| 2026-05-04 12:03 | 51.87801 | -0.37015 | 534 ft | 12 kts | 162° |
| 2026-05-04 12:04 | 51.87720 | -0.36972 | 534 ft | 12 kts | 162° |
| 2026-05-04 12:04 | 51.87636 | -0.36959 | 534 ft | 12 kts | 213° |
| 2026-05-04 12:04 | 51.87601 | -0.37089 | 534 ft | 13 kts | 254° |
| 2026-05-04 12:04 | 51.87576 | -0.37232 | 534 ft | 13 kts | 255° |
| 2026-05-04 12:05 | 51.87576 | -0.37383 | 534 ft | 13 kts | 276° |
| 2026-05-04 12:05 | 51.87520 | -0.37483 | 534 ft | 13 kts | 221° |
| 2026-05-04 12:05 | 51.87481 | -0.37634 | 534 ft | 15 kts | 255° |
| 2026-05-04 12:05 | 51.87451 | -0.37807 | 534 ft | 16 kts | 255° |
| 2026-05-04 12:06 | 51.87418 | -0.37978 | 534 ft | 15 kts | 244° |
| 2026-05-04 12:06 | 51.87333 | -0.38085 | 534 ft | 15 kts | 203° |
| 2026-05-04 12:06 | 51.87237 | -0.38137 | 534 ft | 14 kts | 232° |
| 2026-05-04 12:06 | 51.87223 | -0.38277 | 534 ft | 9 kts | 277° |
| 2026-05-04 12:07 | 51.87213 | -0.38285 | 534 ft | 2 kts | 100° |
| 2026-05-04 12:07 | 51.87214 | -0.38258 | 534 ft | 2 kts | 79° |
| 2026-05-04 12:07 | 51.87217 | -0.38237 | 534 ft | 0 kts | 76° |
| 2026-05-04 12:07 | 51.87253 | -0.38021 | 534 ft | 56 kts | 75° |
| 2026-05-04 12:08 | 51.87425 | -0.37021 | 534 ft | 125 kts | 74° |
| 2026-05-04 12:08 | 51.87707 | -0.35385 | 684 ft | 165 kts | 72° |
| 2026-05-04 12:08 | 51.88009 | -0.33637 | 1374 ft | 164 kts | 73° |
| 2026-05-04 12:08 | 51.88321 | -0.31869 | 2062 ft | 167 kts | 72° |
| 2026-05-04 12:09 | 51.88634 | -0.30050 | 2621 ft | 175 kts | 72° |
| 2026-05-04 12:09 | 51.88976 | -0.28086 | 3016 ft | 190 kts | 73° |
| 2026-05-04 12:09 | 51.89347 | -0.25945 | 3397 ft | 206 kts | 73° |
| 2026-05-04 12:09 | 51.89631 | -0.23581 | 3741 ft | 226 kts | 89° |
| 2026-05-04 12:10 | 51.89264 | -0.20997 | 4051 ft | 249 kts | 118° |
| 2026-05-04 12:10 | 51.88065 | -0.18885 | 4531 ft | 265 kts | 148° |
| 2026-05-04 12:10 | 51.86351 | -0.17814 | 5297 ft | 268 kts | 164° |
| 2026-05-04 12:10 | 51.84561 | -0.17009 | 6113 ft | 270 kts | 163° |
| 2026-05-04 12:11 | 51.82781 | -0.16050 | 6899 ft | 273 kts | 160° |
| 2026-05-04 12:11 | 51.81011 | -0.14933 | 7658 ft | 276 kts | 158° |
| 2026-05-04 12:11 | 51.79239 | -0.13720 | 8376 ft | 279 kts | 158° |
| 2026-05-04 12:11 | 51.77474 | -0.12432 | 9090 ft | 283 kts | 152° |
| 2026-05-04 12:12 | 51.76004 | -0.10337 | 9673 ft | 289 kts | 124° |
| 2026-05-04 12:12 | 51.75290 | -0.07323 | 9958 ft | 293 kts | 97° |
| 2026-05-04 12:12 | 51.75415 | -0.04031 | 10113 ft | 300 kts | 81° |
| 2026-05-04 12:12 | 51.75758 | -0.00644 | 10464 ft | 314 kts | 82° |
| 2026-05-04 12:13 | 51.76086 | 0.02884 | 10983 ft | 322 kts | 82° |
| 2026-05-04 12:14 | 51.78224 | 0.28765 | 14569 ft | 342 kts | 83° |
| 2026-05-04 12:15 | 51.78532 | 0.32577 | 15169 ft | 345 kts | 83° |
| 2026-05-04 12:15 | 51.78841 | 0.36411 | 15753 ft | 348 kts | 83° |
| 2026-05-04 12:15 | 51.79151 | 0.40283 | 16324 ft | 350 kts | 83° |
| 2026-05-04 12:15 | 51.79461 | 0.44179 | 16869 ft | 353 kts | 83° |
| 2026-05-04 12:16 | 51.79773 | 0.48113 | 17398 ft | 356 kts | 83° |
| 2026-05-04 12:16 | 51.80086 | 0.52082 | 17926 ft | 359 kts | 83° |
| 2026-05-04 12:16 | 51.80399 | 0.56087 | 18433 ft | 362 kts | 83° |
| 2026-05-04 12:16 | 51.80714 | 0.60126 | 18919 ft | 366 kts | 83° |
| 2026-05-04 12:17 | 51.81066 | 0.64200 | 19374 ft | 370 kts | 81° |
| 2026-05-04 12:17 | 51.81583 | 0.68301 | 19830 ft | 374 kts | 78° |
| 2026-05-04 12:17 | 51.82204 | 0.72394 | 20277 ft | 377 kts | 77° |
| 2026-05-04 12:17 | 51.82847 | 0.76511 | 20711 ft | 381 kts | 77° |
| 2026-05-04 12:18 | 51.83497 | 0.80675 | 21138 ft | 385 kts | 77° |
| 2026-05-04 12:18 | 51.84227 | 0.84847 | 21503 ft | 390 kts | 75° |
| 2026-05-04 12:18 | 51.84996 | 0.89065 | 21877 ft | 395 kts | 75° |
| 2026-05-04 12:18 | 51.85777 | 0.93326 | 22282 ft | 398 kts | 75° |
| 2026-05-04 12:19 | 51.86561 | 0.97619 | 22669 ft | 402 kts | 75° |
| 2026-05-04 12:19 | 51.87349 | 1.01952 | 23046 ft | 405 kts | 75° |
| 2026-05-04 12:19 | 51.88144 | 1.06330 | 23417 ft | 409 kts | 75° |
| 2026-05-04 12:19 | 51.88941 | 1.10745 | 23770 ft | 413 kts | 75° |
| 2026-05-04 12:20 | 51.89745 | 1.15201 | 24120 ft | 416 kts | 75° |
| 2026-05-04 12:20 | 51.90554 | 1.19702 | 24502 ft | 419 kts | 75° |
| 2026-05-04 12:20 | 51.91364 | 1.24217 | 24890 ft | 421 kts | 75° |
| 2026-05-04 12:20 | 51.92178 | 1.28771 | 25267 ft | 423 kts | 75° |
| 2026-05-04 12:21 | 51.92994 | 1.33342 | 25633 ft | 425 kts | 75° |
| 2026-05-04 12:21 | 51.93811 | 1.37934 | 25991 ft | 427 kts | 75° |
| 2026-05-04 12:21 | 51.94632 | 1.42569 | 26331 ft | 430 kts | 75° |
| 2026-05-04 12:21 | 51.95456 | 1.47229 | 26648 ft | 433 kts | 75° |
| 2026-05-04 12:22 | 51.96282 | 1.51908 | 26983 ft | 435 kts | 75° |
| 2026-05-04 12:22 | 51.97114 | 1.56627 | 27314 ft | 437 kts | 75° |
| 2026-05-04 12:22 | 51.97945 | 1.61360 | 27626 ft | 439 kts | 75° |
| 2026-05-04 12:22 | 51.98777 | 1.66119 | 27936 ft | 441 kts | 76° |
| 2026-05-04 12:23 | 51.99592 | 1.70904 | 28231 ft | 443 kts | 77° |
| 2026-05-04 12:23 | 52.00353 | 1.75741 | 28532 ft | 445 kts | 78° |
| 2026-05-04 12:23 | 52.01101 | 1.80604 | 28836 ft | 447 kts | 78° |
| 2026-05-04 12:23 | 52.01850 | 1.85490 | 29145 ft | 449 kts | 78° |
| 2026-05-04 12:24 | 52.02601 | 1.90390 | 29456 ft | 450 kts | 78° |
| 2026-05-04 12:24 | 52.03357 | 1.95309 | 29768 ft | 451 kts | 78° |
| 2026-05-04 12:24 | 52.04113 | 2.00234 | 30087 ft | 452 kts | 78° |
| 2026-05-04 12:24 | 52.04871 | 2.05184 | 30399 ft | 453 kts | 78° |
| 2026-05-04 12:25 | 52.05629 | 2.10130 | 30774 ft | 453 kts | 78° |
| 2026-05-04 12:25 | 52.06381 | 2.15060 | 31158 ft | 452 kts | 78° |
| 2026-05-04 12:25 | 52.07133 | 2.19998 | 31495 ft | 452 kts | 78° |
| 2026-05-04 12:25 | 52.07881 | 2.24933 | 31764 ft | 453 kts | 78° |
| 2026-05-04 12:26 | 52.08631 | 2.29904 | 32042 ft | 454 kts | 78° |
| 2026-05-04 12:26 | 52.09379 | 2.34869 | 32306 ft | 455 kts | 78° |
| 2026-05-04 12:26 | 52.10126 | 2.39853 | 32570 ft | 456 kts | 78° |
| 2026-05-04 12:26 | 52.10875 | 2.44855 | 32820 ft | 457 kts | 78° |
| 2026-05-04 12:27 | 52.11670 | 2.49855 | 32986 ft | 460 kts | 76° |
| 2026-05-04 12:27 | 52.12588 | 2.54822 | 32995 ft | 461 kts | 75° |
| 2026-05-04 12:27 | 52.14489 | 2.64746 | 32998 ft | 461 kts | 74° |
| 2026-05-04 12:28 | 52.16387 | 2.74684 | 33003 ft | 462 kts | 75° |
| 2026-05-04 12:28 | 52.18266 | 2.84638 | 32995 ft | 461 kts | 75° |
| 2026-05-04 12:29 | 52.20134 | 2.94597 | 33000 ft | 462 kts | 75° |
| 2026-05-04 12:29 | 52.21997 | 3.04578 | 32995 ft | 462 kts | 75° |
| 2026-05-04 12:30 | 52.23851 | 3.14583 | 32994 ft | 463 kts | 75° |
| 2026-05-04 12:30 | 52.25396 | 3.24721 | 32995 ft | 462 kts | 82° |
| 2026-05-04 12:31 | 52.26189 | 3.35213 | 33001 ft | 473 kts | 88° |
| 2026-05-04 12:31 | 52.26698 | 3.46014 | 33000 ft | 485 kts | 88° |
| 2026-05-04 12:32 | 52.27467 | 3.62487 | 32990 ft | 490 kts | 88° |
| 2026-05-04 12:33 | 52.27979 | 3.73501 | 32993 ft | 490 kts | 89° |
| 2026-05-04 12:33 | 52.28483 | 3.84502 | 32994 ft | 490 kts | 89° |
| 2026-05-04 12:34 | 52.28980 | 3.95573 | 32996 ft | 491 kts | 89° |
| 2026-05-04 12:34 | 52.29468 | 4.06686 | 32996 ft | 492 kts | 89° |
| 2026-05-04 12:35 | 52.29945 | 4.17782 | 32992 ft | 491 kts | 89° |
| 2026-05-04 12:35 | 52.30411 | 4.28905 | 32991 ft | 492 kts | 89° |
| 2026-05-04 12:36 | 52.30870 | 4.40072 | 32984 ft | 493 kts | 89° |
| 2026-05-04 12:36 | 52.31315 | 4.51207 | 32980 ft | 493 kts | 89° |
| 2026-05-04 12:37 | 52.31752 | 4.62356 | 32981 ft | 494 kts | 89° |
| 2026-05-04 12:37 | 52.32182 | 4.73561 | 32979 ft | 494 kts | 90° |
| 2026-05-04 12:38 | 52.32599 | 4.84736 | 32978 ft | 494 kts | 90° |
| 2026-05-04 12:38 | 52.32962 | 4.95941 | 32974 ft | 494 kts | 93° |
| 2026-05-04 12:39 | 52.32580 | 5.07049 | 32972 ft | 489 kts | 102° |
| 2026-05-04 12:39 | 52.31214 | 5.17831 | 32968 ft | 483 kts | 111° |
| 2026-05-04 12:40 | 52.28989 | 5.28085 | 32969 ft | 480 kts | 116° |
| 2026-05-04 12:40 | 52.26554 | 5.38175 | 32965 ft | 479 kts | 116° |
| 2026-05-04 12:41 | 52.24130 | 5.48278 | 32960 ft | 480 kts | 116° |
| 2026-05-04 12:41 | 52.21703 | 5.58376 | 32955 ft | 480 kts | 116° |
| 2026-05-04 12:42 | 52.19269 | 5.68404 | 32634 ft | 473 kts | 117° |
| 2026-05-04 12:42 | 52.18065 | 5.73357 | 31923 ft | 473 kts | 118° |
| 2026-05-04 12:42 | 52.16853 | 5.78328 | 31022 ft | 476 kts | 118° |
| 2026-05-04 12:42 | 52.15631 | 5.83318 | 30110 ft | 476 kts | 118° |
| 2026-05-04 12:43 | 52.14400 | 5.88321 | 29179 ft | 477 kts | 117° |
| 2026-05-04 12:43 | 52.13178 | 5.93282 | 28626 ft | 470 kts | 117° |
| 2026-05-04 12:43 | 52.11978 | 5.98169 | 28096 ft | 463 kts | 117° |
| 2026-05-04 12:43 | 52.10801 | 6.02980 | 27588 ft | 457 kts | 116° |
| 2026-05-04 12:44 | 52.09810 | 6.07842 | 27090 ft | 454 kts | 110° |
| 2026-05-04 12:44 | 52.09085 | 6.12784 | 26605 ft | 450 kts | 105° |
| 2026-05-04 12:44 | 52.08541 | 6.17749 | 26139 ft | 445 kts | 103° |
| 2026-05-04 12:44 | 52.08039 | 6.22671 | 25631 ft | 439 kts | 102° |
| 2026-05-04 12:45 | 52.07546 | 6.27524 | 25115 ft | 434 kts | 102° |
| 2026-05-04 12:45 | 52.07053 | 6.32326 | 24549 ft | 431 kts | 102° |
| 2026-05-04 12:45 | 52.06559 | 6.37086 | 23974 ft | 428 kts | 102° |
| 2026-05-04 12:45 | 52.06060 | 6.41825 | 23310 ft | 427 kts | 101° |
| 2026-05-04 12:46 | 52.05558 | 6.46546 | 22750 ft | 424 kts | 101° |
| 2026-05-04 12:46 | 52.05066 | 6.51222 | 22263 ft | 419 kts | 101° |
| 2026-05-04 12:46 | 52.04575 | 6.55852 | 21793 ft | 415 kts | 101° |
| 2026-05-04 12:46 | 52.04087 | 6.60418 | 21340 ft | 410 kts | 101° |
| 2026-05-04 12:47 | 52.03600 | 6.64935 | 20887 ft | 405 kts | 101° |
| 2026-05-04 12:47 | 52.03114 | 6.69437 | 20463 ft | 400 kts | 102° |
| 2026-05-04 12:47 | 52.02579 | 6.73850 | 20018 ft | 394 kts | 107° |
| 2026-05-04 12:47 | 52.01670 | 6.77980 | 19592 ft | 387 kts | 117° |
| 2026-05-04 12:48 | 52.00398 | 6.81777 | 19152 ft | 382 kts | 123° |
| 2026-05-04 12:48 | 51.99026 | 6.85407 | 18723 ft | 378 kts | 124° |
| 2026-05-04 12:48 | 51.97646 | 6.88996 | 18304 ft | 374 kts | 124° |
| 2026-05-04 12:48 | 51.96286 | 6.92547 | 17860 ft | 371 kts | 124° |
| 2026-05-04 12:49 | 51.94937 | 6.96080 | 17414 ft | 368 kts | 124° |
| 2026-05-04 12:49 | 51.93603 | 6.99589 | 16974 ft | 365 kts | 124° |
| 2026-05-04 12:49 | 51.92282 | 7.03065 | 16542 ft | 363 kts | 124° |
| 2026-05-04 12:49 | 51.90970 | 7.06520 | 16100 ft | 360 kts | 124° |
| 2026-05-04 12:50 | 51.89667 | 7.09944 | 15668 ft | 357 kts | 124° |
| 2026-05-04 12:50 | 51.88371 | 7.13346 | 15243 ft | 355 kts | 123° |
| 2026-05-04 12:50 | 51.87085 | 7.16712 | 14820 ft | 352 kts | 123° |
| 2026-05-04 12:50 | 51.85805 | 7.20065 | 14381 ft | 350 kts | 123° |
| 2026-05-04 12:51 | 51.84529 | 7.23404 | 13962 ft | 348 kts | 123° |
| 2026-05-04 12:51 | 51.83263 | 7.26713 | 13536 ft | 346 kts | 123° |
| 2026-05-04 12:51 | 51.82006 | 7.29996 | 13102 ft | 343 kts | 123° |
| 2026-05-04 12:51 | 51.80757 | 7.33254 | 12694 ft | 341 kts | 123° |
| 2026-05-04 12:52 | 51.79517 | 7.36485 | 12281 ft | 338 kts | 123° |
| 2026-05-04 12:52 | 51.78286 | 7.39687 | 11869 ft | 336 kts | 123° |
| 2026-05-04 12:52 | 51.77061 | 7.42875 | 11452 ft | 334 kts | 123° |
| 2026-05-04 12:52 | 51.75846 | 7.46031 | 11041 ft | 331 kts | 123° |
| 2026-05-04 12:53 | 51.74637 | 7.49162 | 10642 ft | 329 kts | 123° |
| 2026-05-04 12:53 | 51.73438 | 7.52267 | 10265 ft | 325 kts | 123° |
| 2026-05-04 12:53 | 51.72262 | 7.55306 | 10109 ft | 313 kts | 123° |
| 2026-05-04 12:53 | 51.70974 | 7.58022 | 9942 ft | 299 kts | 141° |
| 2026-05-04 12:54 | 51.69165 | 7.59431 | 9652 ft | 288 kts | 171° |
| 2026-05-04 12:54 | 51.67197 | 7.59801 | 9298 ft | 284 kts | 175° |
| 2026-05-04 12:54 | 51.65245 | 7.60158 | 8945 ft | 282 kts | 174° |
| 2026-05-04 12:54 | 51.63307 | 7.60564 | 8596 ft | 280 kts | 173° |
| 2026-05-04 12:55 | 51.61392 | 7.60997 | 8250 ft | 278 kts | 173° |
| 2026-05-04 12:55 | 51.59493 | 7.61441 | 7907 ft | 275 kts | 173° |
| 2026-05-04 12:55 | 51.57603 | 7.61890 | 7565 ft | 273 kts | 172° |
| 2026-05-04 12:55 | 51.55731 | 7.62351 | 7219 ft | 271 kts | 172° |
| 2026-05-04 12:56 | 51.53876 | 7.62812 | 6870 ft | 269 kts | 172° |
| 2026-05-04 12:56 | 51.52039 | 7.63268 | 6524 ft | 267 kts | 172° |
| 2026-05-04 12:56 | 51.50215 | 7.63716 | 6179 ft | 264 kts | 172° |
| 2026-05-04 12:56 | 51.48414 | 7.64225 | 5829 ft | 263 kts | 164° |
| 2026-05-04 12:57 | 51.46906 | 7.65795 | 5605 ft | 261 kts | 128° |
| 2026-05-04 12:57 | 51.46192 | 7.68459 | 5451 ft | 264 kts | 99° |
| 2026-05-04 12:57 | 51.46308 | 7.71418 | 5266 ft | 265 kts | 73° |
| 2026-05-04 12:57 | 51.46960 | 7.73497 | 5098 ft | 265 kts | 53° |